Aegean Tiffany — SVAE9 — position and weather

sailwx.info

Track history (hours):
 
Tides and Currents Weather Stations Pressure Air Temp Water Temp Dewpoint Dewpoint Depression Visibility Wind Speed Wind Dir Waves Ship Positions

Aegean Tiffany

Last reported at 2017-May-24 21:40 UTC. Time now 2017-May-26 16:53 UTC.
Position N 37°55' E 023°09'.

Length 80 m; draft 5.8 m.

Type: Tanker. MMSI: 240870000.

Date/timePositionNaut miles runAvg speedWind from/ knotsBaromVisibWave heightAir tempDewpointWater temp
2017-May-24 21:40N 37°55' E 023°09'1 8.1
2017-May-24 21:30N 37°55' E 023°10'4 8.1
2017-May-24 21:00N 37°56' E 023°15'4 8.0
2017-May-24 20:30N 37°57' E 023°20'4 8.1
2017-May-24 20:00N 37°58' E 023°25'3 5.4
2017-May-24 19:30N 38°00' E 023°27'4 8.1
2017-May-24 19:00N 38°02' E 023°31'1 0.1
2017-May-24 07:40N 38°02' E 023°32'0 0.0
2017-May-24 07:30N 38°02' E 023°32'0 0.0
2017-May-23 22:43N 38°02' E 023°32'0 0.0
2017-May-23 22:30N 38°02' E 023°32'0 0.3
2017-May-23 22:00N 38°02' E 023°32'1 1.8
2017-May-23 21:30N 38°02' E 023°31'0 0.0
2017-May-23 21:01N 38°02' E 023°31'0 0.0
2017-May-23 20:30N 38°02' E 023°31'0 0.0
2017-May-23 20:00N 38°02' E 023°31'0 0.0
2017-May-23 19:30N 38°02' E 023°31'0 0.0
2017-May-23 19:00N 38°02' E 023°31'0 0.0
2017-May-23 18:30N 38°02' E 023°31'0 0.0
2017-May-23 18:01N 38°02' E 023°31'0 0.0
2017-May-23 17:31N 38°02' E 023°31'0 0.0
2017-May-23 17:00N 38°02' E 023°31'1 1.1
2017-May-23 16:31N 38°02' E 023°31'3 5.3
2017-May-23 16:00N 38°02' E 023°35'1 1.4
2017-May-23 15:30N 38°02' E 023°36'0 0.0
2017-May-23 15:00N 38°02' E 023°36'0 0.0
2017-May-23 14:31N 38°02' E 023°36'0 0.0
2017-May-23 13:30N 38°02' E 023°36'0 0.0
2017-May-23 13:00N 38°02' E 023°36'0 0.0
2017-May-23 12:30N 38°02' E 023°36'0 0.0
2017-May-23 12:01N 38°02' E 023°36'0 0.0
2017-May-23 11:30N 38°02' E 023°36'0 0.0
2017-May-23 11:00N 38°02' E 023°36'0 0.0
2017-May-23 10:30N 38°02' E 023°36'0 0.0
2017-May-23 10:00N 38°02' E 023°36'0 0.0
2017-May-23 09:30N 38°02' E 023°36'0 0.0
2017-May-23 09:00N 38°02' E 023°36'1 1.0
2017-May-23 08:30N 38°02' E 023°35'0 0.1
2017-May-23 08:00N 38°02' E 023°35'0 0.0
2017-May-23 07:30N 38°02' E 023°35'0 0.0
2017-May-23 07:00N 38°02' E 023°35'0 0.0
2017-May-23 06:30N 38°02' E 023°35'0 0.0
2017-May-23 06:00N 38°02' E 023°35'0 0.1
2017-May-23 05:31N 38°02' E 023°35'0 0.1
2017-May-23 05:00N 38°01' E 023°35'0 0.1
2017-May-23 04:30N 38°01' E 023°35'0 0.1
2017-May-23 04:00N 38°01' E 023°35'3 5.1
2017-May-23 03:31N 38°02' E 023°32'  
2017-May-19 05:42N 38°02' E 023°32'0 0.1
2017-May-19 05:30N 38°02' E 023°32'0 0.6
2017-May-19 05:00N 38°02' E 023°32'0 0.0
2017-May-19 04:30N 38°02' E 023°32'0 0.0
2017-May-19 04:00N 38°02' E 023°32'0 0.0
2017-May-19 03:30N 38°02' E 023°32'0 0.0
2017-May-19 03:00N 38°02' E 023°32'0 0.0
2017-May-19 02:30N 38°02' E 023°32'0 0.0
2017-May-19 02:00N 38°02' E 023°32'0 0.0
2017-May-19 01:30N 38°02' E 023°32'0 0.0
2017-May-19 01:01N 38°02' E 023°32'0 0.1
2017-May-19 00:30N 38°02' E 023°32'0 0.0
2017-May-19 00:00N 38°02' E 023°32'0 0.0
2017-May-18 23:30N 38°02' E 023°32'0 0.0
2017-May-18 23:00N 38°02' E 023°32'2 3.4
2017-May-18 22:30N 38°02' E 023°34'1 2.8
2017-May-18 22:00N 38°02' E 023°36'0 0.0
2017-May-18 21:31N 38°02' E 023°36'0 0.0
2017-May-18 21:00N 38°02' E 023°36'0 0.0
2017-May-18 20:30N 38°02' E 023°36'0 0.0
2017-May-18 20:00N 38°02' E 023°36'0 0.0
2017-May-18 19:30N 38°02' E 023°36'0 0.0
2017-May-18 19:00N 38°02' E 023°36'0 0.0
2017-May-18 18:30N 38°02' E 023°36'0 0.0
2017-May-18 18:00N 38°02' E 023°36'0 0.0
2017-May-18 17:29N 38°02' E 023°36'0 0.0
2017-May-18 17:00N 38°02' E 023°36'0 0.0
2017-May-18 16:31N 38°02' E 023°36'0 0.0
2017-May-18 16:00N 38°02' E 023°36'0 0.0
2017-May-18 15:29N 38°02' E 023°36'0 0.0
2017-May-18 15:00N 38°02' E 023°36'0 0.0
2017-May-18 14:31N 38°02' E 023°36'2 2.5
2017-May-18 13:30N 38°02' E 023°33'1 1.1
2017-May-18 13:00N 38°02' E 023°32'0 0.0
2017-May-18 10:04N 38°02' E 023°32'0 0.0
2017-May-18 10:00N 38°02' E 023°32'0 0.0
2017-May-18 09:30N 38°02' E 023°32'0 0.0
2017-May-18 09:00N 38°02' E 023°32'0 0.0
2017-May-18 08:30N 38°02' E 023°32'0 0.0
2017-May-18 08:00N 38°02' E 023°32'0 0.0
2017-May-18 07:30N 38°02' E 023°32'0 0.0
2017-May-18 07:00N 38°02' E 023°32'0 0.0
2017-May-18 06:30N 38°02' E 023°32'0 0.0
2017-May-17 08:00N 38°02' E 023°32'1 1.4
2017-May-17 07:30N 38°02' E 023°33'2 4.2
2017-May-17 07:00N 38°02' E 023°35'0 0.0
2017-May-17 06:30N 38°02' E 023°35'0 0.0
2017-May-17 06:00N 38°02' E 023°35'1 1.1
2017-May-17 05:30N 38°02' E 023°35'2 4.2
2017-May-17 05:00N 38°02' E 023°32'0 0.0
2017-May-17 04:30N 38°02' E 023°32'  
Track history (hours):
 
Tides and Currents Weather Stations Pressure Air Temp Water Temp Dewpoint Dewpoint Depression Visibility Wind Speed Wind Dir Waves Ship Positions

Aegean Tiffany

Last reported at 2017-May-24 21:40 UTC. Time now 2017-May-26 16:53 UTC.
Position N 37°55' E 023°09'.

Length 80 m; draft 5.8 m.

Type: Tanker. MMSI: 240870000.

Date/timePositionNaut miles runAvg speedWind from/ knotsBaromVisibWave heightAir tempDewpointWater temp
2017-May-24 21:40N 37°55' E 023°09'1 8.1
2017-May-24 21:30N 37°55' E 023°10'4 8.1
2017-May-24 21:00N 37°56' E 023°15'4 8.0
2017-May-24 20:30N 37°57' E 023°20'4 8.1
2017-May-24 20:00N 37°58' E 023°25'3 5.4
2017-May-24 19:30N 38°00' E 023°27'4 8.1
2017-May-24 19:00N 38°02' E 023°31'1 0.1
2017-May-24 07:40N 38°02' E 023°32'0 0.0
2017-May-24 07:30N 38°02' E 023°32'0 0.0
2017-May-23 22:43N 38°02' E 023°32'0 0.0
2017-May-23 22:30N 38°02' E 023°32'0 0.3
2017-May-23 22:00N 38°02' E 023°32'1 1.8
2017-May-23 21:30N 38°02' E 023°31'0 0.0
2017-May-23 21:01N 38°02' E 023°31'0 0.0
2017-May-23 20:30N 38°02' E 023°31'0 0.0
2017-May-23 20:00N 38°02' E 023°31'0 0.0
2017-May-23 19:30N 38°02' E 023°31'0 0.0
2017-May-23 19:00N 38°02' E 023°31'0 0.0
2017-May-23 18:30N 38°02' E 023°31'0 0.0
2017-May-23 18:01N 38°02' E 023°31'0 0.0
2017-May-23 17:31N 38°02' E 023°31'0 0.0
2017-May-23 17:00N 38°02' E 023°31'1 1.1
2017-May-23 16:31N 38°02' E 023°31'3 5.3
2017-May-23 16:00N 38°02' E 023°35'1 1.4
2017-May-23 15:30N 38°02' E 023°36'0 0.0
2017-May-23 15:00N 38°02' E 023°36'0 0.0
2017-May-23 14:31N 38°02' E 023°36'0 0.0
2017-May-23 13:30N 38°02' E 023°36'0 0.0
2017-May-23 13:00N 38°02' E 023°36'0 0.0
2017-May-23 12:30N 38°02' E 023°36'0 0.0
2017-May-23 12:01N 38°02' E 023°36'0 0.0
2017-May-23 11:30N 38°02' E 023°36'0 0.0
2017-May-23 11:00N 38°02' E 023°36'0 0.0
2017-May-23 10:30N 38°02' E 023°36'0 0.0
2017-May-23 10:00N 38°02' E 023°36'0 0.0
2017-May-23 09:30N 38°02' E 023°36'0 0.0
2017-May-23 09:00N 38°02' E 023°36'1 1.0
2017-May-23 08:30N 38°02' E 023°35'0 0.1
2017-May-23 08:00N 38°02' E 023°35'0 0.0
2017-May-23 07:30N 38°02' E 023°35'0 0.0
2017-May-23 07:00N 38°02' E 023°35'0 0.0
2017-May-23 06:30N 38°02' E 023°35'0 0.0
2017-May-23 06:00N 38°02' E 023°35'0 0.1
2017-May-23 05:31N 38°02' E 023°35'0 0.1
2017-May-23 05:00N 38°01' E 023°35'0 0.1
2017-May-23 04:30N 38°01' E 023°35'0 0.1
2017-May-23 04:00N 38°01' E 023°35'3 5.1
2017-May-23 03:31N 38°02' E 023°32'  
2017-May-19 05:42N 38°02' E 023°32'0 0.1
2017-May-19 05:30N 38°02' E 023°32'0 0.6
2017-May-19 05:00N 38°02' E 023°32'0 0.0
2017-May-19 04:30N 38°02' E 023°32'0 0.0
2017-May-19 04:00N 38°02' E 023°32'0 0.0
2017-May-19 03:30N 38°02' E 023°32'0 0.0
2017-May-19 03:00N 38°02' E 023°32'0 0.0
2017-May-19 02:30N 38°02' E 023°32'0 0.0
2017-May-19 02:00N 38°02' E 023°32'0 0.0
2017-May-19 01:30N 38°02' E 023°32'0 0.0
2017-May-19 01:01N 38°02' E 023°32'0 0.1
2017-May-19 00:30N 38°02' E 023°32'0 0.0
2017-May-19 00:00N 38°02' E 023°32'0 0.0
2017-May-18 23:30N 38°02' E 023°32'0 0.0
2017-May-18 23:00N 38°02' E 023°32'2 3.4
2017-May-18 22:30N 38°02' E 023°34'1 2.8
2017-May-18 22:00N 38°02' E 023°36'0 0.0
2017-May-18 21:31N 38°02' E 023°36'0 0.0
2017-May-18 21:00N 38°02' E 023°36'0 0.0
2017-May-18 20:30N 38°02' E 023°36'0 0.0
2017-May-18 20:00N 38°02' E 023°36'0 0.0
2017-May-18 19:30N 38°02' E 023°36'0 0.0
2017-May-18 19:00N 38°02' E 023°36'0 0.0
2017-May-18 18:30N 38°02' E 023°36'0 0.0
2017-May-18 18:00N 38°02' E 023°36'0 0.0
2017-May-18 17:29N 38°02' E 023°36'0 0.0
2017-May-18 17:00N 38°02' E 023°36'0 0.0
2017-May-18 16:31N 38°02' E 023°36'0 0.0
2017-May-18 16:00N 38°02' E 023°36'0 0.0
2017-May-18 15:29N 38°02' E 023°36'0 0.0
2017-May-18 15:00N 38°02' E 023°36'0 0.0
2017-May-18 14:31N 38°02' E 023°36'2 2.5
2017-May-18 13:30N 38°02' E 023°33'1 1.1
2017-May-18 13:00N 38°02' E 023°32'0 0.0
2017-May-18 10:04N 38°02' E 023°32'0 0.0
2017-May-18 10:00N 38°02' E 023°32'0 0.0
2017-May-18 09:30N 38°02' E 023°32'0 0.0
2017-May-18 09:00N 38°02' E 023°32'0 0.0
2017-May-18 08:30N 38°02' E 023°32'0 0.0
2017-May-18 08:00N 38°02' E 023°32'0 0.0
2017-May-18 07:30N 38°02' E 023°32'0 0.0
2017-May-18 07:00N 38°02' E 023°32'0 0.0
2017-May-18 06:30N 38°02' E 023°32'0 0.0
2017-May-17 08:00N 38°02' E 023°32'1 1.4
2017-May-17 07:30N 38°02' E 023°33'2 4.2
2017-May-17 07:00N 38°02' E 023°35'0 0.0
2017-May-17 06:30N 38°02' E 023°35'0 0.0
2017-May-17 06:00N 38°02' E 023°35'1 1.1
2017-May-17 05:30N 38°02' E 023°35'2 4.2
2017-May-17 05:00N 38°02' E 023°32'0 0.0
2017-May-17 04:30N 38°02' E 023°32'  

Dump ship's entire track history